三亜 の空港の天気 - METARとTAF

三亜鳳凰国際空港 ( ZJSY / SYX ) - 中国 海南省三亜市
飛行場実況気象(Metar)
観測時間07/20 19:00 CST (07/20 11:00 UTC)
風向・風速西南西 1m/s
視程10km以上
天気現象
なし
気温31℃
湿度79%
気圧1004hPa
METARZJSY 201100Z 24001MPS CAVOK 31/27 Q1004 NOSIG
過去の天気等 Google飛行場航空写真 Wunderground天気予報

過去48時間のMETAR

飛行場予報(TAF)
発表時間: 7/20 17:01 CST (7/20 09:01 UTC)
予報対象時間: 20日20時 CST ~ 21日20時 CST
風向・風速南 4m/s
視程10km以上
少しの雲 雲底高度 610m
TAF ZJSY 200901Z 2012/2112 18004MPS 9999 FEW020 TX33/2106Z TN28/2021Z